sensor_id;sensor_type;location;lat;lon;timestamp;temperature;humidity
44517;DHT22;30223;17.182;-96.766;2022-09-09T00:01:35;24.70;72.40
44517;DHT22;30223;17.182;-96.766;2022-09-09T00:03:53;24.70;72.50
44517;DHT22;30223;17.182;-96.766;2022-09-09T00:06:33;24.70;72.50
44517;DHT22;30223;17.182;-96.766;2022-09-09T00:09:17;24.70;72.40
44517;DHT22;30223;17.182;-96.766;2022-09-09T00:15:05;24.60;72.40
44517;DHT22;30223;17.182;-96.766;2022-09-09T00:17:38;24.60;72.40
44517;DHT22;30223;17.182;-96.766;2022-09-09T00:20:14;24.60;72.40
44517;DHT22;30223;17.182;-96.766;2022-09-09T00:23:00;24.60;72.30
44517;DHT22;30223;17.182;-96.766;2022-09-09T00:25:54;24.60;72.40
44517;DHT22;30223;17.182;-96.766;2022-09-09T00:28:25;24.60;72.40
44517;DHT22;30223;17.182;-96.766;2022-09-09T00:30:53;24.60;72.40
44517;DHT22;30223;17.182;-96.766;2022-09-09T00:33:24;24.60;72.40
44517;DHT22;30223;17.182;-96.766;2022-09-09T00:35:56;24.60;72.40
44517;DHT22;30223;17.182;-96.766;2022-09-09T00:38:33;24.60;72.40
44517;DHT22;30223;17.182;-96.766;2022-09-09T00:43:39;24.60;72.40
44517;DHT22;30223;17.182;-96.766;2022-09-09T00:46:19;24.60;72.40
44517;DHT22;30223;17.182;-96.766;2022-09-09T00:49:20;24.50;72.30
44517;DHT22;30223;17.182;-96.766;2022-09-09T00:55:14;24.50;72.30
44517;DHT22;30223;17.182;-96.766;2022-09-09T00:57:42;24.50;72.30
44517;DHT22;30223;17.182;-96.766;2022-09-09T01:00:20;24.50;72.40
44517;DHT22;30223;17.182;-96.766;2022-09-09T01:06:11;24.50;72.40
44517;DHT22;30223;17.182;-96.766;2022-09-09T01:14:47;24.50;72.40
44517;DHT22;30223;17.182;-96.766;2022-09-09T01:17:17;24.50;72.50
44517;DHT22;30223;17.182;-96.766;2022-09-09T01:20:06;24.50;72.50
44517;DHT22;30223;17.182;-96.766;2022-09-09T01:26:04;24.50;72.40
44517;DHT22;30223;17.182;-96.766;2022-09-09T01:28:36;24.40;72.40
44517;DHT22;30223;17.182;-96.766;2022-09-09T01:31:09;24.40;72.40
44517;DHT22;30223;17.182;-96.766;2022-09-09T01:33:37;24.40;72.40
44517;DHT22;30223;17.182;-96.766;2022-09-09T01:36:26;24.40;72.40
44517;DHT22;30223;17.182;-96.766;2022-09-09T01:38:54;24.40;72.30
44517;DHT22;30223;17.182;-96.766;2022-09-09T01:41:21;24.40;72.40
44517;DHT22;30223;17.182;-96.766;2022-09-09T01:43:48;24.40;72.30
44517;DHT22;30223;17.182;-96.766;2022-09-09T01:46:15;24.40;72.40
44517;DHT22;30223;17.182;-96.766;2022-09-09T01:48:42;24.40;72.40
44517;DHT22;30223;17.182;-96.766;2022-09-09T01:51:10;24.30;72.90
44517;DHT22;30223;17.182;-96.766;2022-09-09T01:53:37;24.30;72.30
44517;DHT22;30223;17.182;-96.766;2022-09-09T01:56:26;24.30;72.30
44517;DHT22;30223;17.182;-96.766;2022-09-09T02:05:03;24.30;72.30
44517;DHT22;30223;17.182;-96.766;2022-09-09T02:09:45;24.30;72.30
44517;DHT22;30223;17.182;-96.766;2022-09-09T02:12:16;24.30;72.30
44517;DHT22;30223;17.182;-96.766;2022-09-09T02:14:53;24.30;72.30
44517;DHT22;30223;17.182;-96.766;2022-09-09T02:17:28;24.30;72.90
44517;DHT22;30223;17.182;-96.766;2022-09-09T02:20:04;24.30;72.30
44517;DHT22;30223;17.182;-96.766;2022-09-09T02:22:33;24.30;72.20
44517;DHT22;30223;17.182;-96.766;2022-09-09T02:25:03;24.30;72.30
44517;DHT22;30223;17.182;-96.766;2022-09-09T02:27:31;24.20;72.20
44517;DHT22;30223;17.182;-96.766;2022-09-09T02:29:59;24.30;72.30
44517;DHT22;30223;17.182;-96.766;2022-09-09T02:32:29;24.20;72.20
44517;DHT22;30223;17.182;-96.766;2022-09-09T02:35:09;24.20;72.20
44517;DHT22;30223;17.182;-96.766;2022-09-09T02:37:38;24.20;72.20
44517;DHT22;30223;17.182;-96.766;2022-09-09T02:40:07;24.20;72.20
44517;DHT22;30223;17.182;-96.766;2022-09-09T02:42:45;24.20;72.20
44517;DHT22;30223;17.182;-96.766;2022-09-09T02:45:18;24.20;72.20
44517;DHT22;30223;17.182;-96.766;2022-09-09T02:48:14;24.20;72.20
44517;DHT22;30223;17.182;-96.766;2022-09-09T02:51:06;24.20;72.20
44517;DHT22;30223;17.182;-96.766;2022-09-09T02:54:00;24.20;72.20
44517;DHT22;30223;17.182;-96.766;2022-09-09T02:56:33;24.20;72.20
44517;DHT22;30223;17.182;-96.766;2022-09-09T02:59:05;24.20;72.20
44517;DHT22;30223;17.182;-96.766;2022-09-09T03:01:32;24.20;72.20
44517;DHT22;30223;17.182;-96.766;2022-09-09T03:03:58;24.20;72.20
44517;DHT22;30223;17.182;-96.766;2022-09-09T03:06:25;24.20;72.20
44517;DHT22;30223;17.182;-96.766;2022-09-09T03:08:53;24.20;72.20
44517;DHT22;30223;17.182;-96.766;2022-09-09T03:11:19;24.20;72.20
44517;DHT22;30223;17.182;-96.766;2022-09-09T03:13:46;24.10;72.10
44517;DHT22;30223;17.182;-96.766;2022-09-09T03:16:13;24.20;72.20
44517;DHT22;30223;17.182;-96.766;2022-09-09T03:18:41;24.10;72.10
44517;DHT22;30223;17.182;-96.766;2022-09-09T03:21:08;24.10;72.10
44517;DHT22;30223;17.182;-96.766;2022-09-09T03:23:35;24.10;72.10
44517;DHT22;30223;17.182;-96.766;2022-09-09T03:26:02;24.10;72.10
44517;DHT22;30223;17.182;-96.766;2022-09-09T03:28:28;24.10;72.10
44517;DHT22;30223;17.182;-96.766;2022-09-09T03:31:04;24.10;72.10
44517;DHT22;30223;17.182;-96.766;2022-09-09T03:33:31;24.10;72.10
44517;DHT22;30223;17.182;-96.766;2022-09-09T03:35:58;24.10;72.10
44517;DHT22;30223;17.182;-96.766;2022-09-09T03:38:24;24.10;72.10
44517;DHT22;30223;17.182;-96.766;2022-09-09T03:40:56;24.10;72.10
44517;DHT22;30223;17.182;-96.766;2022-09-09T03:43:24;24.10;72.10
44517;DHT22;30223;17.182;-96.766;2022-09-09T03:45:51;24.10;72.10
44517;DHT22;30223;17.182;-96.766;2022-09-09T03:48:18;24.10;72.10
44517;DHT22;30223;17.182;-96.766;2022-09-09T03:50:49;24.10;72.10
44517;DHT22;30223;17.182;-96.766;2022-09-09T03:53:18;24.00;72.00
44517;DHT22;30223;17.182;-96.766;2022-09-09T03:55:46;24.00;72.00
44517;DHT22;30223;17.182;-96.766;2022-09-09T03:58:14;24.00;72.00
44517;DHT22;30223;17.182;-96.766;2022-09-09T04:00:41;24.00;72.00
44517;DHT22;30223;17.182;-96.766;2022-09-09T04:03:11;24.00;72.00
44517;DHT22;30223;17.182;-96.766;2022-09-09T04:05:40;24.00;72.00
44517;DHT22;30223;17.182;-96.766;2022-09-09T04:08:08;24.00;72.00
44517;DHT22;30223;17.182;-96.766;2022-09-09T04:10:35;24.00;72.00
44517;DHT22;30223;17.182;-96.766;2022-09-09T04:13:05;24.00;72.00
44517;DHT22;30223;17.182;-96.766;2022-09-09T04:15:31;24.00;72.60
44517;DHT22;30223;17.182;-96.766;2022-09-09T04:17:59;23.90;72.00
44517;DHT22;30223;17.182;-96.766;2022-09-09T04:20:26;24.00;72.00
44517;DHT22;30223;17.182;-96.766;2022-09-09T04:22:53;23.90;72.00
44517;DHT22;30223;17.182;-96.766;2022-09-09T04:25:19;23.90;72.00
44517;DHT22;30223;17.182;-96.766;2022-09-09T04:27:46;24.00;72.00
44517;DHT22;30223;17.182;-96.766;2022-09-09T04:30:13;23.90;72.00
44517;DHT22;30223;17.182;-96.766;2022-09-09T04:32:40;23.90;72.00
44517;DHT22;30223;17.182;-96.766;2022-09-09T04:35:07;23.90;71.90
44517;DHT22;30223;17.182;-96.766;2022-09-09T04:37:33;23.90;72.00
44517;DHT22;30223;17.182;-96.766;2022-09-09T04:40:00;23.90;71.90
44517;DHT22;30223;17.182;-96.766;2022-09-09T04:42:28;23.90;71.90
44517;DHT22;30223;17.182;-96.766;2022-09-09T04:44:55;23.90;72.00
44517;DHT22;30223;17.182;-96.766;2022-09-09T04:47:21;23.90;72.10
44517;DHT22;30223;17.182;-96.766;2022-09-09T04:49:48;23.90;72.00
44517;DHT22;30223;17.182;-96.766;2022-09-09T04:52:15;23.80;71.90
44517;DHT22;30223;17.182;-96.766;2022-09-09T04:54:43;23.90;72.00
44517;DHT22;30223;17.182;-96.766;2022-09-09T04:57:10;23.90;72.00
44517;DHT22;30223;17.182;-96.766;2022-09-09T04:59:37;23.90;72.00
44517;DHT22;30223;17.182;-96.766;2022-09-09T05:02:05;23.80;72.00
44517;DHT22;30223;17.182;-96.766;2022-09-09T05:04:32;23.90;72.10
44517;DHT22;30223;17.182;-96.766;2022-09-09T05:06:59;23.80;72.10
44517;DHT22;30223;17.182;-96.766;2022-09-09T05:09:26;23.80;72.20
44517;DHT22;30223;17.182;-96.766;2022-09-09T05:11:52;23.80;72.20
44517;DHT22;30223;17.182;-96.766;2022-09-09T05:14:19;23.80;72.20
44517;DHT22;30223;17.182;-96.766;2022-09-09T05:16:45;23.80;72.30
44517;DHT22;30223;17.182;-96.766;2022-09-09T05:19:13;23.80;72.30
44517;DHT22;30223;17.182;-96.766;2022-09-09T05:21:39;23.80;72.30
44517;DHT22;30223;17.182;-96.766;2022-09-09T05:24:07;23.80;72.40
44517;DHT22;30223;17.182;-96.766;2022-09-09T05:26:34;23.80;72.40
44517;DHT22;30223;17.182;-96.766;2022-09-09T05:29:00;23.80;72.50
44517;DHT22;30223;17.182;-96.766;2022-09-09T05:31:28;23.80;72.50
44517;DHT22;30223;17.182;-96.766;2022-09-09T05:33:56;23.80;72.50
44517;DHT22;30223;17.182;-96.766;2022-09-09T05:36:23;23.80;72.40
44517;DHT22;30223;17.182;-96.766;2022-09-09T05:38:49;23.80;72.40
44517;DHT22;30223;17.182;-96.766;2022-09-09T05:41:17;23.80;72.40
44517;DHT22;30223;17.182;-96.766;2022-09-09T05:43:44;23.80;72.40
44517;DHT22;30223;17.182;-96.766;2022-09-09T05:46:14;23.80;72.40
44517;DHT22;30223;17.182;-96.766;2022-09-09T05:48:43;23.80;72.40
44517;DHT22;30223;17.182;-96.766;2022-09-09T05:51:14;23.70;72.40
44517;DHT22;30223;17.182;-96.766;2022-09-09T05:53:42;23.70;72.40
44517;DHT22;30223;17.182;-96.766;2022-09-09T05:56:16;23.70;72.40
44517;DHT22;30223;17.182;-96.766;2022-09-09T05:58:44;23.70;72.40
44517;DHT22;30223;17.182;-96.766;2022-09-09T06:01:18;23.70;72.40
44517;DHT22;30223;17.182;-96.766;2022-09-09T06:03:46;23.70;72.40
44517;DHT22;30223;17.182;-96.766;2022-09-09T06:06:17;23.70;72.50
44517;DHT22;30223;17.182;-96.766;2022-09-09T06:08:46;23.70;72.60
44517;DHT22;30223;17.182;-96.766;2022-09-09T06:11:16;23.70;72.60
44517;DHT22;30223;17.182;-96.766;2022-09-09T06:13:44;23.70;72.70
44517;DHT22;30223;17.182;-96.766;2022-09-09T06:16:12;23.60;72.60
44517;DHT22;30223;17.182;-96.766;2022-09-09T06:18:40;23.60;72.60
44517;DHT22;30223;17.182;-96.766;2022-09-09T06:21:17;23.60;72.60
44517;DHT22;30223;17.182;-96.766;2022-09-09T06:23:44;23.60;72.60
44517;DHT22;30223;17.182;-96.766;2022-09-09T06:26:16;23.60;72.70
44517;DHT22;30223;17.182;-96.766;2022-09-09T06:28:47;23.60;72.60
44517;DHT22;30223;17.182;-96.766;2022-09-09T06:31:15;23.60;72.60
44517;DHT22;30223;17.182;-96.766;2022-09-09T06:33:52;23.60;72.70
44517;DHT22;30223;17.182;-96.766;2022-09-09T06:36:33;23.50;72.50
44517;DHT22;30223;17.182;-96.766;2022-09-09T06:39:01;23.50;72.50
44517;DHT22;30223;17.182;-96.766;2022-09-09T06:41:29;23.50;72.50
44517;DHT22;30223;17.182;-96.766;2022-09-09T06:43:56;23.50;72.50
44517;DHT22;30223;17.182;-96.766;2022-09-09T06:46:28;23.50;72.50
44517;DHT22;30223;17.182;-96.766;2022-09-09T06:48:56;23.50;72.50
44517;DHT22;30223;17.182;-96.766;2022-09-09T06:51:36;23.50;72.50
44517;DHT22;30223;17.182;-96.766;2022-09-09T06:54:04;23.50;72.50
44517;DHT22;30223;17.182;-96.766;2022-09-09T06:56:33;23.50;72.50
44517;DHT22;30223;17.182;-96.766;2022-09-09T06:59:04;23.50;72.50
44517;DHT22;30223;17.182;-96.766;2022-09-09T07:01:33;23.40;72.50
44517;DHT22;30223;17.182;-96.766;2022-09-09T07:04:00;23.40;72.50
44517;DHT22;30223;17.182;-96.766;2022-09-09T07:06:32;23.40;72.50
44517;DHT22;30223;17.182;-96.766;2022-09-09T07:09:05;23.40;72.50
44517;DHT22;30223;17.182;-96.766;2022-09-09T07:11:34;23.40;72.50
44517;DHT22;30223;17.182;-96.766;2022-09-09T07:14:03;23.40;72.60
44517;DHT22;30223;17.182;-96.766;2022-09-09T07:16:30;23.40;72.50
44517;DHT22;30223;17.182;-96.766;2022-09-09T07:18:58;23.40;72.50
44517;DHT22;30223;17.182;-96.766;2022-09-09T07:21:28;23.30;72.40
44517;DHT22;30223;17.182;-96.766;2022-09-09T07:23:55;23.30;72.50
44517;DHT22;30223;17.182;-96.766;2022-09-09T07:26:24;23.30;72.40
44517;DHT22;30223;17.182;-96.766;2022-09-09T07:28:51;23.30;72.50
44517;DHT22;30223;17.182;-96.766;2022-09-09T07:31:23;23.30;72.40
44517;DHT22;30223;17.182;-96.766;2022-09-09T07:33:51;23.30;72.50
44517;DHT22;30223;17.182;-96.766;2022-09-09T07:36:23;23.30;72.50
44517;DHT22;30223;17.182;-96.766;2022-09-09T07:39:14;23.30;72.50
44517;DHT22;30223;17.182;-96.766;2022-09-09T07:41:42;23.30;72.50
44517;DHT22;30223;17.182;-96.766;2022-09-09T07:44:14;23.20;72.50
44517;DHT22;30223;17.182;-96.766;2022-09-09T07:46:42;23.20;72.50
44517;DHT22;30223;17.182;-96.766;2022-09-09T07:49:09;23.20;72.50
44517;DHT22;30223;17.182;-96.766;2022-09-09T07:51:38;23.20;72.50
44517;DHT22;30223;17.182;-96.766;2022-09-09T07:54:08;23.20;72.50
44517;DHT22;30223;17.182;-96.766;2022-09-09T07:56:35;23.20;72.50
44517;DHT22;30223;17.182;-96.766;2022-09-09T07:59:03;23.20;72.50
44517;DHT22;30223;17.182;-96.766;2022-09-09T08:01:40;23.20;72.50
44517;DHT22;30223;17.182;-96.766;2022-09-09T08:04:10;23.20;72.40
44517;DHT22;30223;17.182;-96.766;2022-09-09T08:06:43;23.10;72.40
44517;DHT22;30223;17.182;-96.766;2022-09-09T08:09:10;23.10;72.40
44517;DHT22;30223;17.182;-96.766;2022-09-09T08:11:37;23.10;72.40
44517;DHT22;30223;17.182;-96.766;2022-09-09T08:14:06;23.10;72.50
44517;DHT22;30223;17.182;-96.766;2022-09-09T08:16:36;23.10;73.00
44517;DHT22;30223;17.182;-96.766;2022-09-09T08:19:03;23.10;72.50
44517;DHT22;30223;17.182;-96.766;2022-09-09T08:21:32;23.10;72.50
44517;DHT22;30223;17.182;-96.766;2022-09-09T08:24:00;23.10;72.50
44517;DHT22;30223;17.182;-96.766;2022-09-09T08:26:31;23.00;72.50
44517;DHT22;30223;17.182;-96.766;2022-09-09T08:29:00;23.00;72.50
44517;DHT22;30223;17.182;-96.766;2022-09-09T08:31:30;23.00;72.50
44517;DHT22;30223;17.182;-96.766;2022-09-09T08:33:59;23.00;72.50
44517;DHT22;30223;17.182;-96.766;2022-09-09T08:36:27;23.00;72.50
44517;DHT22;30223;17.182;-96.766;2022-09-09T08:38:56;23.00;72.50
44517;DHT22;30223;17.182;-96.766;2022-09-09T08:52:40;22.90;72.50
44517;DHT22;30223;17.182;-96.766;2022-09-09T08:55:22;22.90;72.50
44517;DHT22;30223;17.182;-96.766;2022-09-09T08:57:52;22.90;72.50
44517;DHT22;30223;17.182;-96.766;2022-09-09T09:00:20;22.90;72.50
44517;DHT22;30223;17.182;-96.766;2022-09-09T09:03:48;22.90;72.60
44517;DHT22;30223;17.182;-96.766;2022-09-09T09:05:51;22.90;72.60
44517;DHT22;30223;17.182;-96.766;2022-09-09T09:11:07;22.90;72.50
44517;DHT22;30223;17.182;-96.766;2022-09-09T09:13:50;22.90;72.60
44517;DHT22;30223;17.182;-96.766;2022-09-09T09:16:38;22.80;72.50
44517;DHT22;30223;17.182;-96.766;2022-09-09T09:19:08;22.80;72.50
44517;DHT22;30223;17.182;-96.766;2022-09-09T09:21:43;22.80;72.50
44517;DHT22;30223;17.182;-96.766;2022-09-09T09:24:21;22.80;72.50
44517;DHT22;30223;17.182;-96.766;2022-09-09T09:26:49;22.80;72.50
44517;DHT22;30223;17.182;-96.766;2022-09-09T09:29:19;22.80;72.60
44517;DHT22;30223;17.182;-96.766;2022-09-09T09:31:56;22.80;72.50
44517;DHT22;30223;17.182;-96.766;2022-09-09T09:34:23;22.80;72.50
44517;DHT22;30223;17.182;-96.766;2022-09-09T09:36:58;22.80;72.60
44517;DHT22;30223;17.182;-96.766;2022-09-09T09:39:30;22.70;72.50
44517;DHT22;30223;17.182;-96.766;2022-09-09T09:41:57;22.70;72.50
44517;DHT22;30223;17.182;-96.766;2022-09-09T09:44:32;22.70;72.50
44517;DHT22;30223;17.182;-96.766;2022-09-09T09:47:15;22.70;72.50
44517;DHT22;30223;17.182;-96.766;2022-09-09T09:49:51;22.70;72.50
44517;DHT22;30223;17.182;-96.766;2022-09-09T09:52:28;22.70;72.50
44517;DHT22;30223;17.182;-96.766;2022-09-09T09:54:57;22.70;72.50
44517;DHT22;30223;17.182;-96.766;2022-09-09T09:57:31;22.70;72.60
44517;DHT22;30223;17.182;-96.766;2022-09-09T10:00:20;22.70;72.50
44517;DHT22;30223;17.182;-96.766;2022-09-09T10:02:48;22.60;72.40
44517;DHT22;30223;17.182;-96.766;2022-09-09T10:05:30;22.70;72.50
44517;DHT22;30223;17.182;-96.766;2022-09-09T10:08:16;22.60;72.50
44517;DHT22;30223;17.182;-96.766;2022-09-09T10:14:13;22.60;72.40
44517;DHT22;30223;17.182;-96.766;2022-09-09T10:19:34;22.60;72.40
44517;DHT22;30223;17.182;-96.766;2022-09-09T10:22:13;22.60;72.40
44517;DHT22;30223;17.182;-96.766;2022-09-09T10:27:42;22.60;72.50
44517;DHT22;30223;17.182;-96.766;2022-09-09T10:33:04;22.50;72.40
44517;DHT22;30223;17.182;-96.766;2022-09-09T10:35:54;22.60;72.50
44517;DHT22;30223;17.182;-96.766;2022-09-09T10:38:28;22.50;72.40
44517;DHT22;30223;17.182;-96.766;2022-09-09T10:43:47;22.50;72.40
44517;DHT22;30223;17.182;-96.766;2022-09-09T10:51:19;22.60;72.50
44517;DHT22;30223;17.182;-96.766;2022-09-09T10:57:03;22.50;72.40
44517;DHT22;30223;17.182;-96.766;2022-09-09T10:59:42;22.50;72.40
44517;DHT22;30223;17.182;-96.766;2022-09-09T11:04:50;22.50;72.40
44517;DHT22;30223;17.182;-96.766;2022-09-09T11:10:29;22.50;72.40
44517;DHT22;30223;17.182;-96.766;2022-09-09T11:13:03;22.50;72.40
44517;DHT22;30223;17.182;-96.766;2022-09-09T11:15:41;22.50;72.40
44517;DHT22;30223;17.182;-96.766;2022-09-09T11:18:15;22.50;72.40
44517;DHT22;30223;17.182;-96.766;2022-09-09T11:20:45;22.50;72.40
44517;DHT22;30223;17.182;-96.766;2022-09-09T11:23:23;22.50;72.40
44517;DHT22;30223;17.182;-96.766;2022-09-09T11:25:56;22.40;72.40
44517;DHT22;30223;17.182;-96.766;2022-09-09T11:28:51;22.40;72.90
44517;DHT22;30223;17.182;-96.766;2022-09-09T11:42:24;22.40;72.40
44517;DHT22;30223;17.182;-96.766;2022-09-09T11:44:51;22.40;72.30
44517;DHT22;30223;17.182;-96.766;2022-09-09T11:47:24;22.40;72.40
44517;DHT22;30223;17.182;-96.766;2022-09-09T11:52:48;22.30;72.20
44517;DHT22;30223;17.182;-96.766;2022-09-09T11:55:25;22.30;72.30
44517;DHT22;30223;17.182;-96.766;2022-09-09T11:58:16;22.40;73.00
44517;DHT22;30223;17.182;-96.766;2022-09-09T12:00:47;22.30;72.30
44517;DHT22;30223;17.182;-96.766;2022-09-09T12:03:40;22.30;72.30
44517;DHT22;30223;17.182;-96.766;2022-09-09T12:06:24;22.30;72.20
44517;DHT22;30223;17.182;-96.766;2022-09-09T12:08:55;22.30;72.30
44517;DHT22;30223;17.182;-96.766;2022-09-09T12:11:30;22.30;72.30
44517;DHT22;30223;17.182;-96.766;2022-09-09T12:14:00;22.30;72.30
44517;DHT22;30223;17.182;-96.766;2022-09-09T12:16:35;22.30;72.30
44517;DHT22;30223;17.182;-96.766;2022-09-09T12:19:16;22.30;72.30
44517;DHT22;30223;17.182;-96.766;2022-09-09T12:24:21;22.30;72.30
44517;DHT22;30223;17.182;-96.766;2022-09-09T12:29:37;22.30;72.30
44517;DHT22;30223;17.182;-96.766;2022-09-09T12:32:11;22.30;72.30
44517;DHT22;30223;17.182;-96.766;2022-09-09T12:34:46;22.20;72.20
44517;DHT22;30223;17.182;-96.766;2022-09-09T12:40:01;22.30;72.30
44517;DHT22;30223;17.182;-96.766;2022-09-09T12:42:29;22.20;72.30
44517;DHT22;30223;17.182;-96.766;2022-09-09T12:44:58;22.20;72.20
44517;DHT22;30223;17.182;-96.766;2022-09-09T12:50:23;22.20;72.30
44517;DHT22;30223;17.182;-96.766;2022-09-09T12:52:55;22.20;72.20
44517;DHT22;30223;17.182;-96.766;2022-09-09T12:55:28;22.20;72.20
44517;DHT22;30223;17.182;-96.766;2022-09-09T12:57:57;22.20;72.30
44517;DHT22;30223;17.182;-96.766;2022-09-09T13:00:25;22.20;72.30
44517;DHT22;30223;17.182;-96.766;2022-09-09T13:02:57;22.20;72.40
44517;DHT22;30223;17.182;-96.766;2022-09-09T13:05:35;22.20;72.30
44517;DHT22;30223;17.182;-96.766;2022-09-09T13:08:04;22.20;72.30
44517;DHT22;30223;17.182;-96.766;2022-09-09T13:13:38;22.20;72.40
44517;DHT22;30223;17.182;-96.766;2022-09-09T13:16:16;22.20;72.60
44517;DHT22;30223;17.182;-96.766;2022-09-09T13:18:44;22.20;72.70
44517;DHT22;30223;17.182;-96.766;2022-09-09T13:21:11;22.20;72.80
44517;DHT22;30223;17.182;-96.766;2022-09-09T13:23:38;22.10;72.70
44517;DHT22;30223;17.182;-96.766;2022-09-09T13:26:25;22.20;73.00
44517;DHT22;30223;17.182;-96.766;2022-09-09T13:29:07;22.10;72.80
44517;DHT22;30223;17.182;-96.766;2022-09-09T13:31:36;22.10;73.00
44517;DHT22;30223;17.182;-96.766;2022-09-09T13:34:30;22.10;73.60
44517;DHT22;30223;17.182;-96.766;2022-09-09T13:37:01;22.10;72.90
44517;DHT22;30223;17.182;-96.766;2022-09-09T13:39:37;22.10;73.00
44517;DHT22;30223;17.182;-96.766;2022-09-09T13:42:05;22.10;73.10
44517;DHT22;30223;17.182;-96.766;2022-09-09T13:44:38;22.10;73.10
44517;DHT22;30223;17.182;-96.766;2022-09-09T13:47:06;22.10;73.00
44517;DHT22;30223;17.182;-96.766;2022-09-09T13:49:43;22.10;73.10
44517;DHT22;30223;17.182;-96.766;2022-09-09T13:52:13;22.10;73.10
44517;DHT22;30223;17.182;-96.766;2022-09-09T13:54:42;22.10;73.20
44517;DHT22;30223;17.182;-96.766;2022-09-09T13:57:25;22.10;73.10
44517;DHT22;30223;17.182;-96.766;2022-09-09T13:59:53;22.10;73.10
44517;DHT22;30223;17.182;-96.766;2022-09-09T14:02:23;22.10;73.20
44517;DHT22;30223;17.182;-96.766;2022-09-09T14:04:50;22.10;73.20
44517;DHT22;30223;17.182;-96.766;2022-09-09T14:07:21;22.10;73.20
44517;DHT22;30223;17.182;-96.766;2022-09-09T14:09:48;22.10;73.20
44517;DHT22;30223;17.182;-96.766;2022-09-09T14:12:16;22.10;73.20
44517;DHT22;30223;17.182;-96.766;2022-09-09T14:14:43;22.10;73.20
44517;DHT22;30223;17.182;-96.766;2022-09-09T14:17:10;22.10;73.20
44517;DHT22;30223;17.182;-96.766;2022-09-09T14:19:37;22.10;73.30
44517;DHT22;30223;17.182;-96.766;2022-09-09T14:22:03;22.10;73.20
44517;DHT22;30223;17.182;-96.766;2022-09-09T14:24:30;22.10;73.20
44517;DHT22;30223;17.182;-96.766;2022-09-09T14:26:56;22.10;73.20
44517;DHT22;30223;17.182;-96.766;2022-09-09T14:29:23;22.10;73.20
44517;DHT22;30223;17.182;-96.766;2022-09-09T14:31:51;22.10;73.20
44517;DHT22;30223;17.182;-96.766;2022-09-09T14:34:17;22.10;73.30
44517;DHT22;30223;17.182;-96.766;2022-09-09T14:36:44;22.10;73.20
44517;DHT22;30223;17.182;-96.766;2022-09-09T14:39:11;22.10;73.20
44517;DHT22;30223;17.182;-96.766;2022-09-09T14:41:38;22.10;73.30
44517;DHT22;30223;17.182;-96.766;2022-09-09T14:44:04;22.10;73.20
44517;DHT22;30223;17.182;-96.766;2022-09-09T14:46:31;22.10;73.20
44517;DHT22;30223;17.182;-96.766;2022-09-09T14:48:59;22.10;73.20
44517;DHT22;30223;17.182;-96.766;2022-09-09T14:51:26;22.10;73.20
44517;DHT22;30223;17.182;-96.766;2022-09-09T14:53:58;22.10;73.20
44517;DHT22;30223;17.182;-96.766;2022-09-09T14:56:28;22.10;73.20
44517;DHT22;30223;17.182;-96.766;2022-09-09T14:58:57;22.10;73.20
44517;DHT22;30223;17.182;-96.766;2022-09-09T15:01:24;22.10;73.20
44517;DHT22;30223;17.182;-96.766;2022-09-09T15:04:00;22.10;73.20
44517;DHT22;30223;17.182;-96.766;2022-09-09T15:06:29;22.10;73.20
44517;DHT22;30223;17.182;-96.766;2022-09-09T15:08:56;22.10;73.20
44517;DHT22;30223;17.182;-96.766;2022-09-09T15:11:28;22.10;73.20
44517;DHT22;30223;17.182;-96.766;2022-09-09T15:13:57;22.10;73.20
44517;DHT22;30223;17.182;-96.766;2022-09-09T15:16:26;22.10;73.10
44517;DHT22;30223;17.182;-96.766;2022-09-09T15:18:54;22.10;73.10
44517;DHT22;30223;17.182;-96.766;2022-09-09T15:21:23;22.10;73.10
44517;DHT22;30223;17.182;-96.766;2022-09-09T15:23:50;22.10;73.20
44517;DHT22;30223;17.182;-96.766;2022-09-09T15:26:18;22.10;73.20
44517;DHT22;30223;17.182;-96.766;2022-09-09T15:28:45;22.10;73.20
44517;DHT22;30223;17.182;-96.766;2022-09-09T15:31:21;22.10;73.20
44517;DHT22;30223;17.182;-96.766;2022-09-09T15:33:49;22.10;73.20
44517;DHT22;30223;17.182;-96.766;2022-09-09T15:36:21;22.10;73.20
44517;DHT22;30223;17.182;-96.766;2022-09-09T15:38:49;22.10;73.20
44517;DHT22;30223;17.182;-96.766;2022-09-09T15:41:17;22.10;73.20
44517;DHT22;30223;17.182;-96.766;2022-09-09T15:43:49;22.10;73.20
44517;DHT22;30223;17.182;-96.766;2022-09-09T15:49:02;22.10;73.20
44517;DHT22;30223;17.182;-96.766;2022-09-09T15:51:30;22.10;73.20
44517;DHT22;30223;17.182;-96.766;2022-09-09T15:53:58;22.20;73.20
44517;DHT22;30223;17.182;-96.766;2022-09-09T15:56:26;22.10;73.10
44517;DHT22;30223;17.182;-96.766;2022-09-09T15:58:56;22.10;73.10
44517;DHT22;30223;17.182;-96.766;2022-09-09T16:01:23;22.10;73.10
44517;DHT22;30223;17.182;-96.766;2022-09-09T16:03:50;22.10;73.10
44517;DHT22;30223;17.182;-96.766;2022-09-09T16:06:20;22.10;73.20
44517;DHT22;30223;17.182;-96.766;2022-09-09T16:08:49;22.10;73.30
44517;DHT22;30223;17.182;-96.766;2022-09-09T16:11:28;22.10;73.40
44517;DHT22;30223;17.182;-96.766;2022-09-09T16:13:55;22.10;73.50
44517;DHT22;30223;17.182;-96.766;2022-09-09T16:16:24;22.10;73.40
44517;DHT22;30223;17.182;-96.766;2022-09-09T16:18:54;22.10;73.70
44517;DHT22;30223;17.182;-96.766;2022-09-09T16:21:25;22.10;73.50
44517;DHT22;30223;17.182;-96.766;2022-09-09T16:23:53;22.10;73.60
44517;DHT22;30223;17.182;-96.766;2022-09-09T16:26:20;22.10;73.70
44517;DHT22;30223;17.182;-96.766;2022-09-09T16:28:47;22.10;74.00
44517;DHT22;30223;17.182;-96.766;2022-09-09T16:31:18;22.20;74.10
44517;DHT22;30223;17.182;-96.766;2022-09-09T16:33:45;22.20;74.00
44517;DHT22;30223;17.182;-96.766;2022-09-09T16:36:15;22.20;74.20
44517;DHT22;30223;17.182;-96.766;2022-09-09T16:38:42;22.20;74.20
44517;DHT22;30223;17.182;-96.766;2022-09-09T16:41:10;22.20;74.30
44517;DHT22;30223;17.182;-96.766;2022-09-09T16:43:38;22.20;74.30
44517;DHT22;30223;17.182;-96.766;2022-09-09T16:46:17;22.20;74.40
44517;DHT22;30223;17.182;-96.766;2022-09-09T16:48:45;22.20;74.40
44517;DHT22;30223;17.182;-96.766;2022-09-09T16:51:32;22.20;74.40
44517;DHT22;30223;17.182;-96.766;2022-09-09T16:54:01;22.20;74.30
44517;DHT22;30223;17.182;-96.766;2022-09-09T16:56:29;22.20;74.30
44517;DHT22;30223;17.182;-96.766;2022-09-09T16:58:58;22.20;74.40
44517;DHT22;30223;17.182;-96.766;2022-09-09T17:01:27;22.30;74.50
44517;DHT22;30223;17.182;-96.766;2022-09-09T17:03:55;22.30;74.50
44517;DHT22;30223;17.182;-96.766;2022-09-09T17:06:22;22.30;74.40
44517;DHT22;30223;17.182;-96.766;2022-09-09T17:08:58;22.30;74.50
44517;DHT22;30223;17.182;-96.766;2022-09-09T17:11:26;22.30;74.50